Latest Weather Observations for Yeppoon

IDQ60801

Issued at 1:02 am EST Friday 29 January 2021 (issued every 10 minutes, with the page automatically refreshed every 10 minutes)

About weather observations | Map of weather stations | Latest weather observations for QLD | Other Formats
Station Details ID: 033294 Name: YEPPOON THE ESPLANADE Lat: -23.14 Lon: 150.75 Height: 5.5 m
Data from the previous 72 hours. | See also: Recent months at Yeppoon
Date/Time
EST
Temp
°C
App
Temp
°C
Dew
Point
°C
Rel
Hum
%
Delta-T
°C
Wind Press
QNH
hPa
Press
MSL
hPa
Rain since
9am
mm
Dir  Spd
km/h
Gust
km/h
Spd
kts
Gust
kts
29/01:00am 25.5 26.3 21.8 80 2.5 SE 20 46 11 25 1008.7 1008.7 2.8
29/12:59am 25.5 26.5 21.8 80 2.5 SE 19 44 10 24 1008.8 1008.8 2.8
29/12:30am 25.3 27.9 22.6 85 1.8 SSE 13 22 7 12 1008.9 1008.9 2.8
29/12:00am 26.2 26.3 21.8 77 2.9 ESE 24 39 13 21 1009.3 1009.3 2.8
 
Date/Time
EST
Temp
°C
App
Temp
°C
Dew
Point
°C
Rel
Hum
%
Delta-T
°C
Wind Press
QNH
hPa
Press
MSL
hPa
Rain since
9am
mm
Dir  Spd
km/h
Gust
km/h
Spd
kts
Gust
kts
28/11:30pm 24.6 26.3 22.3 87 1.5 SE 17 28 9 15 1009.3 1009.3 2.8
28/11:03pm 24.8 23.9 22.9 89 1.3 ESE 32 50 17 27 1009.5 1009.5 2.8
28/11:00pm 24.8 23.1 22.5 87 1.5 ESE 35 50 19 27 1009.4 1009.4 2.4
28/10:54pm 25.5 23.7 23.0 86 1.7 E 37 44 20 24 1009.4 1009.4 2.2
28/10:36pm 24.8 23.0 22.3 86 1.7 E 35 52 19 28 1009.4 1009.4 1.8
28/10:30pm 26.1 26.0 23.6 86 1.7 ESE 30 48 16 26 1009.4 1009.4 1.8
28/10:28pm 25.8 25.8 23.1 85 1.8 ESE 28 48 15 26 1009.4 1009.4 1.8
28/10:00pm 25.2 24.8 23.1 88 1.4 ESE 30 44 16 24 1009.5 1009.5 1.8
28/09:44pm 26.6 26.0 22.7 79 2.6 ESE 30 48 16 26 1009.3 1009.3 0.4
28/09:30pm 26.6 27.0 22.4 78 2.8 SE 24 35 13 19 1009.3 1009.3 0.4
28/09:00pm 26.5 25.9 22.6 79 2.6 ESE 30 41 16 22 1009.3 1009.3 0.4
28/08:37pm 26.2 25.9 22.5 80 2.5 ESE 28 52 15 28 1009.1 1009.1 0.4
28/08:30pm 26.0 26.2 22.7 82 2.2 ESE 26 39 14 21 1009.0 1009.0 0.4
28/08:00pm 27.0 26.5 21.5 72 3.7 ESE 26 43 14 23 1008.7 1008.7 0.2
28/07:30pm 27.1 26.2 21.4 71 3.8 ESE 28 41 15 22 1008.6 1008.6 0.2
28/07:00pm 27.2 26.2 21.9 73 3.6 ESE 30 44 16 24 1008.4 1008.4 0.2
28/06:46pm 27.1 25.6 20.9 69 4.1 ESE 30 48 16 26 1008.2 1008.2 0.2
28/06:30pm 27.2 25.0 21.5 71 3.8 ESE 35 44 19 24 1007.9 1007.9 0.2
28/06:00pm 27.3 26.1 21.6 71 3.8 ESE 30 44 16 24 1007.8 1007.8 0.2
28/05:30pm 27.5 25.1 21.1 68 4.2 ESE 35 44 19 24 1007.5 1007.5 0.2
28/05:00pm 27.8 25.9 20.9 66 4.6 ESE 32 44 17 24 1007.5 1007.5 0.2
28/04:30pm 27.8 27.1 21.8 70 4.0 ESE 28 35 15 19 1007.3 1007.3 0.2
28/04:00pm 28.0 27.7 21.8 69 4.2 ESE 26 35 14 19 1007.2 1007.2 0.2
28/03:30pm 28.7 27.9 21.7 66 4.7 E 28 35 15 19 1007.1 1007.1 0.2
28/03:00pm 28.6 28.3 22.6 70 4.1 ESE 28 37 15 20 1007.4 1007.4 0.2
28/02:30pm 28.8 28.0 22.3 68 4.4 ESE 30 39 16 21 1007.8 1007.8 0.2
28/02:00pm 28.8 27.3 21.8 66 4.7 ESE 32 43 17 23 1007.8 1007.8 0.2
28/01:30pm 29.1 27.9 22.3 66 4.6 ESE 32 41 17 22 1008.0 1008.0 0.2
28/01:00pm 28.8 28.5 21.8 66 4.7 ESE 26 37 14 20 1008.2 1008.2 0.2
28/12:30pm 29.4 30.4 22.9 68 4.4 ESE 22 35 12 19 1008.4 1008.4 0.2
28/12:00pm 28.7 29.2 22.7 70 4.1 ESE 24 39 13 21 1008.9 1008.9 0.2
28/11:30am 28.7 28.7 22.4 68 4.3 ESE 26 41 14 22 1009.0 1009.0 0.2
28/11:00am 28.4 28.8 22.4 70 4.1 ESE 24 37 13 20 1009.3 1009.3 0.2
28/10:30am 28.1 28.6 21.9 69 4.2 SE 22 33 12 18 1009.4 1009.4 0.2
28/10:00am 27.3 26.3 22.0 73 3.6 SE 30 43 16 23 1009.4 1009.4 0.0
28/09:30am 27.2 27.1 22.2 74 3.4 SE 26 39 14 21 1009.4 1009.4 0.0
28/09:00am 26.7 26.9 22.1 76 3.1 SE 24 33 13 18 1009.2 1009.2 0.6
28/08:30am 26.1 28.0 23.4 85 1.8 SSE 19 28 10 15 1009.1 1009.1 0.6
28/08:00am 25.3 26.9 23.2 88 1.4 SSE 20 32 11 17 1009.2 1009.2 0.6
28/07:30am 26.9 27.2 21.6 72 3.5 ESE 22 32 12 17 1008.8 1008.8 0.0
28/07:00am 26.7 27.4 21.2 72 3.6 SE 19 32 10 17 1008.6 1008.6 0.0
28/06:30am 26.5 27.6 21.3 73 3.4 SE 17 22 9 12 1008.3 1008.3 0.0
28/06:00am 26.3 27.9 21.5 75 3.2 SE 15 24 8 13 1008.2 1008.2 0.0
28/05:30am 26.4 26.6 21.4 74 3.3 ESE 22 32 12 17 1007.9 1007.9 0.0
28/05:00am 26.2 26.7 21.2 74 3.3 ESE 20 28 11 15 1007.6 1007.6 0.0
28/04:30am 26.3 26.9 21.3 74 3.3 ESE 20 32 11 17 1007.3 1007.3 0.0
28/04:00am 26.4 26.7 21.6 75 3.2 ESE 22 32 12 17 1007.1 1007.1 0.0
28/03:30am 26.5 27.5 22.1 77 3.0 ESE 20 32 11 17 1007.0 1007.0 0.0
28/03:00am 26.4 25.9 21.4 74 3.3 E 26 32 14 17 1006.8 1006.8 0.0
28/02:30am 26.5 26.3 22.1 77 3.0 E 26 33 14 18 1007.0 1007.0 0.0
28/02:00am 26.6 26.6 22.4 78 2.8 E 26 32 14 17 1007.0 1007.0 0.0
28/01:30am 26.5 26.6 21.9 76 3.1 E 24 30 13 16 1007.1 1007.1 0.0
28/01:00am 26.8 26.6 22.8 79 2.7 E 28 35 15 19 1007.3 1007.3 0.0
28/12:30am 26.7 26.8 22.5 78 2.8 E 26 32 14 17 1007.6 1007.6 0.0
28/12:00am 26.9 26.6 22.5 77 3.0 E 28 33 15 18 1007.9 1007.9 0.0
 
Date/Time
EST
Temp
°C
App
Temp
°C
Dew
Point
°C
Rel
Hum
%
Delta-T
°C
Wind Press
QNH
hPa
Press
MSL
hPa
Rain since
9am
mm
Dir  Spd
km/h
Gust
km/h
Spd
kts
Gust
kts
27/11:30pm 26.9 26.6 22.5 77 3.0 E 28 33 15 18 1008.3 1008.3 0.0
27/11:00pm 27.3 27.7 23.1 78 2.9 ESE 26 35 14 19 1008.6 1008.6 0.0
27/10:30pm 27.0 27.7 23.0 79 2.7 E 24 33 13 18 1008.6 1008.6 0.0
27/10:00pm 27.0 27.1 22.6 77 3.0 E 26 33 14 18 1008.5 1008.5 0.0
27/09:30pm 26.9 27.1 22.7 78 2.8 E 26 30 14 16 1008.3 1008.3 0.0
27/09:00pm 26.9 27.4 22.7 78 2.8 E 24 32 13 17 1008.1 1008.1 0.0
27/08:30pm 27.3 28.3 23.5 80 2.6 E 24 28 13 15 1007.9 1007.9 0.0
27/08:00pm 27.1 27.0 22.3 75 3.2 E 26 30 14 16 1007.7 1007.7 0.0
27/07:30pm 27.4 28.7 24.1 82 2.3 E 24 28 13 15 1007.6 1007.6 0.0
27/07:00pm 27.4 27.6 23.4 79 2.7 E 28 33 15 18 1007.6 1007.6 0.0
27/06:30pm 27.4 27.4 23.0 77 3.0 E 28 33 15 18 1007.4 1007.4 0.0
27/06:00pm 27.4 27.8 23.2 78 2.9 ENE 26 32 14 17 1006.9 1006.9 0.0
27/05:30pm 27.6 27.2 22.3 73 3.6 ENE 28 33 15 18 1006.7 1006.7 0.0
27/05:00pm 27.7 27.4 22.6 74 3.5 E 28 35 15 19 1006.5 1006.5 0.0
27/04:30pm 27.8 28.2 23.2 76 3.1 ENE 26 33 14 18 1006.1 1006.1 0.0
27/04:00pm 28.0 28.4 22.5 72 3.7 ENE 24 30 13 16 1005.8 1005.8 0.0
27/03:30pm 28.0 27.4 22.0 70 4.0 ENE 28 33 15 18 1005.9 1005.9 0.0
27/03:00pm 28.2 29.3 23.1 74 3.5 ENE 22 28 12 15 1005.9 1005.9 0.0
27/02:30pm 28.7 30.1 22.9 71 4.0 E 20 26 11 14 1006.1 1006.1 0.0
27/02:00pm 28.8 29.6 22.5 68 4.3 E 22 24 12 13 1006.5 1006.5 0.0
27/01:30pm 28.9 30.3 22.9 70 4.1 E 20 26 11 14 1006.7 1006.7 0.0
27/01:00pm 28.7 30.3 22.9 71 4.0 E 19 22 10 12 1007.0 1007.0 0.0
27/12:30pm 29.1 30.7 22.8 69 4.3 E 19 22 10 12 1007.5 1007.5 0.0
27/12:00pm 28.8 30.6 22.5 68 4.3 E 17 20 9 11 1007.5 1007.5 0.0
27/11:30am 28.6 29.8 22.1 68 4.4 E 19 20 10 11 1007.7 1007.7 0.0
27/11:00am 28.6 29.5 21.6 66 4.7 E 19 22 10 12 1008.1 1008.1 0.0
27/10:30am 28.3 30.0 22.3 70 4.1 E 17 20 9 11 1008.2 1008.2 0.0
27/10:00am 28.2 29.4 21.5 67 4.5 E 17 20 9 11 1008.1 1008.1 0.0
27/09:30am 28.1 30.0 22.1 70 4.0 ESE 15 20 8 11 1008.2 1008.2 0.0
27/09:00am 27.7 30.1 22.2 72 3.7 ESE 13 20 7 11 1008.1 1008.1 0.0
27/08:30am 27.9 30.0 23.1 75 3.3 ESE 17 22 9 12 1008.1 1008.1 0.0
27/08:00am 27.4 29.5 22.4 74 3.4 E 15 20 8 11 1007.9 1007.9 0.0
27/07:30am 27.2 29.2 22.2 74 3.4 ESE 15 19 8 10 1007.7 1007.7 0.0
27/07:00am 26.6 29.2 22.0 76 3.1 ESE 11 20 6 11 1007.5 1007.5 0.0
27/06:30am 24.1 27.5 22.0 88 1.4 SSW 7 9 4 5 1007.3 1007.3 0.0
27/06:00am 23.3 26.7 21.7 91 1.1 SW 6 9 3 5 1006.8 1006.8 0.0
27/05:30am 23.2 26.3 21.5 90 1.1 SW 7 9 4 5 1006.5 1006.5 0.0
27/05:00am 24.4 27.2 20.9 81 2.3 SSE 7 13 4 7 1006.1 1006.1 0.0
27/04:30am 25.6 28.0 21.5 78 2.7 ESE 11 17 6 9 1005.8 1005.8 0.0
27/04:00am 24.7 27.5 21.6 83 2.1 SE 9 13 5 7 1005.7 1005.7 0.0
27/03:30am 25.7 28.2 21.8 79 2.6 ESE 11 17 6 9 1005.8 1005.8 0.0
27/03:00am 25.6 27.5 21.3 77 2.9 ESE 13 17 7 9 1005.7 1005.7 0.0
27/02:30am 25.7 27.9 21.8 79 2.6 ESE 13 17 7 9 1005.8 1005.8 0.0
27/02:00am 26.0 27.7 22.3 80 2.5 E 17 20 9 11 1005.9 1005.9 0.0
27/01:30am 26.4 28.3 22.7 80 2.5 E 17 22 9 12 1006.2 1006.2 0.0
27/01:00am 26.3 27.7 21.9 77 2.9 E 17 20 9 11 1006.7 1006.7 0.0
27/12:30am 26.3 28.0 22.4 79 2.6 ENE 17 20 9 11 1007.2 1007.2 0.0
27/12:00am 26.4 28.3 22.7 80 2.5 NE 17 20 9 11 1007.3 1007.3 0.0
 
Date/Time
EST
Temp
°C
App
Temp
°C
Dew
Point
°C
Rel
Hum
%
Delta-T
°C
Wind Press
QNH
hPa
Press
MSL
hPa
Rain since
9am
mm
Dir  Spd
km/h
Gust
km/h
Spd
kts
Gust
kts
26/11:30pm 26.6 28.2 22.9 80 2.5 ENE 19 22 10 12 1007.6 1007.6 0.0
26/11:00pm 26.6 27.7 23.1 81 2.4 ENE 22 26 12 14 1007.6 1007.6 0.0
26/10:30pm 26.7 27.5 23.2 81 2.4 ENE 24 28 13 15 1007.6 1007.6 0.0
26/10:00pm 26.7 27.4 23.0 80 2.5 ENE 24 28 13 15 1007.7 1007.7 0.0
26/09:30pm 26.8 27.3 23.3 81 2.4 ENE 26 32 14 17 1007.3 1007.3 0.0
26/09:00pm 26.9 27.8 23.4 81 2.4 ENE 24 28 13 15 1007.0 1007.0 0.0
26/08:30pm 26.9 28.0 23.6 82 2.3 ENE 24 28 13 15 1006.8 1006.8 0.0
26/08:00pm 26.8 27.6 23.1 80 2.5 ENE 24 28 13 15 1006.3 1006.3 0.0
26/07:30pm 26.9 27.7 23.2 80 2.5 ENE 24 28 13 15 1006.1 1006.1 0.0
26/07:00pm 27.0 28.1 23.0 79 2.7 NE 22 26 12 14 1005.7 1005.7 0.0
26/06:30pm 27.1 27.9 23.1 79 2.7 ENE 24 28 13 15 1005.3 1005.3 0.0
26/06:00pm 27.3 28.8 23.1 78 2.9 NE 20 28 11 15 1004.9 1004.9 0.0
26/05:30pm 27.3 27.6 22.3 74 3.4 ENE 24 26 13 14 1004.6 1004.6 0.0
26/05:00pm 27.6 28.8 22.5 74 3.5 ENE 20 24 11 13 1004.2 1004.2 0.0
26/04:30pm 27.8 29.0 22.5 73 3.6 ENE 20 24 11 13 1004.1 1004.1 0.0
26/04:00pm 27.9 28.6 22.2 71 3.9 ENE 22 26 12 14 1004.3 1004.3 0.0
26/03:30pm 28.1 28.6 22.6 72 3.7 ENE 24 28 13 15 1004.5 1004.5 0.0
26/03:00pm 28.0 28.9 22.7 73 3.6 ENE 22 26 12 14 1004.9 1004.9 0.0
26/02:30pm 27.9 28.6 22.2 71 3.8 E 22 26 12 14 1005.1 1005.1 0.0
26/02:00pm 28.1 29.6 23.0 74 3.5 E 20 24 11 13 1005.6 1005.6 0.0
26/01:30pm 28.4 30.2 23.3 74 3.5 ENE 19 22 10 12 1006.0 1006.0 0.0
26/01:00pm 28.4 29.6 22.2 69 4.2 E 19 22 10 12 1006.3 1006.3 0.0
26/12:30pm 28.2 29.9 22.4 71 3.9 E 17 20 9 11 1006.7 1006.7 0.0
26/12:00pm 28.1 29.8 22.3 70 3.9 E 17 22 9 12 1007.2 1007.2 0.0
26/11:30am 28.2 29.5 21.7 68 4.4 E 17 20 9 11 1007.5 1007.5 0.0
26/11:00am 28.0 29.5 22.0 70 4.0 E 17 20 9 11 1007.9 1007.9 0.0
26/10:30am 28.0 29.4 22.5 72 3.7 E 19 24 10 13 1008.1 1008.1 0.0
26/10:00am 28.0 29.0 21.8 69 4.2 ESE 19 22 10 12 1008.1 1008.1 0.0
26/09:30am 27.3 28.7 21.8 72 3.7 ESE 17 22 9 12 1008.2 1008.2 0.0
26/09:00am 27.6 29.6 22.3 73 3.6 ESE 15 24 8 13 1008.1 1008.1 0.0
26/08:30am 27.3 28.3 21.8 72 3.7 ESE 19 20 10 11 1008.1 1008.1 0.0
26/08:00am 27.1 28.7 22.1 74 3.4 ESE 17 20 9 11 1008.0 1008.0 0.0
26/07:30am 27.0 27.9 22.0 74 3.4 ESE 20 26 11 14 1007.8 1007.8 0.0
26/07:00am 26.6 27.7 22.4 78 2.8 ESE 20 26 11 14 1007.6 1007.6 0.0
26/06:30am 26.4 27.5 22.0 77 2.9 ESE 19 26 10 14 1007.4 1007.4 0.0
26/06:00am 25.9 27.3 21.8 78 2.7 ESE 17 24 9 13 1007.0 1007.0 0.0
26/05:30am 25.3 27.9 22.0 82 2.2 ESE 11 20 6 11 1006.5 1006.5 0.0
26/05:00am 24.5 27.8 21.8 85 1.8 SSE 7 11 4 6 1006.4 1006.4 0.0
26/04:30am 25.4 28.4 21.9 81 2.3 SE 9 15 5 8 1006.2 1006.2 0.0
26/04:00am 25.6 27.9 22.1 81 2.3 ESE 13 17 7 9 1006.4 1006.4 0.0
26/03:30am 25.8 27.5 22.3 81 2.3 E 17 20 9 11 1006.4 1006.4 0.0
26/03:00am 25.9 27.5 22.2 80 2.5 E 17 22 9 12 1006.6 1006.6 0.0
26/02:30am 25.8 26.8 21.7 78 2.7 ENE 19 22 10 12 1006.6 1006.6 0.0
26/02:00am 26.0 26.2 21.4 76 3.1 E 22 28 12 15 1007.0 1007.0 0.0
26/01:30am 26.2 26.9 22.3 79 2.6 E 22 28 12 15 1007.4 1007.4 0.0

Other formats

Comma delimited format used in spreadsheet applications
http://www.bom.gov.au/fwo/IDQ60801/IDQ60801.94373.axf

JavaScript Object Notation format (JSON) in row-major order
http://www.bom.gov.au/fwo/IDQ60801/IDQ60801.94373.json

Data quality

Most of these data are generated automatically and are frequently updated. Quality checks on data are not normally performed. It is possible for incorrect values to appear. Refer to information at About Latest Weather Observations and please check the disclaimer before using these data.